Time;durP1;ratioP1;P1;durP2;ratioP2;P2;SDS_P1;SDS_P2;PMS_P1;PMS_P2;Temp;Humidity;BMP_temperature;BMP_pressure;BME280_temperature;BME280_humidity;BME280_pressure;Samples;Min_cycle;Max_cycle;Signal;HPM_P1;HPM_P2
2022/03/31 00:00:57;;;;;;;15.20;13.80;;;;;;;4.50;100.00;95266.09;5026083;28;20228;-57
2022/03/31 00:03:25;;;;;;;15.67;14.17;;;;;;;4.55;100.00;95273.38;5017386;28;20210;-57
2022/03/31 00:05:54;;;;;;;15.40;14.03;;;;;;;4.43;100.00;95273.91;4985710;28;20211;-53
2022/03/31 00:08:22;;;;;;;15.30;13.83;;;;;;;4.47;100.00;95266.47;5018440;28;20222;-57
2022/03/31 00:10:53;;;;;;;15.43;13.83;;;;;;;4.45;100.00;95265.84;5025239;28;20219;-55
2022/03/31 00:13:23;;;;;;;16.13;14.10;;;;;;;4.38;100.00;95273.69;4998117;28;20238;-57
2022/03/31 00:15:53;;;;;;;15.70;14.13;;;;;;;4.35;100.00;95268.81;5021447;28;20223;-55
2022/03/31 00:18:22;;;;;;;16.80;14.80;;;;;;;4.32;100.00;95275.25;5017901;28;20931;-56
2022/03/31 00:20:50;;;;;;;17.10;15.37;;;;;;;4.31;100.00;95267.59;4984615;28;20238;-53
2022/03/31 00:23:18;;;;;;;16.00;14.27;;;;;;;4.41;100.00;95267.25;5018181;28;20207;-55
2022/03/31 00:25:46;;;;;;;16.20;14.57;;;;;;;4.47;100.00;95274.34;5019153;28;20200;-52
2022/03/31 00:28:16;;;;;;;15.63;14.03;;;;;;;4.45;100.00;95266.66;5017964;28;20212;-57
2022/03/31 00:30:45;;;;;;;15.90;14.27;;;;;;;4.45;100.00;95266.66;5020106;28;20309;-54
2022/03/31 00:33:13;;;;;;;16.40;14.80;;;;;;;4.48;100.00;95262.84;5019819;28;20239;-58
2022/03/31 00:35:41;;;;;;;17.43;15.10;;;;;;;4.40;100.00;95260.38;4984946;28;20700;-52
2022/03/31 00:38:10;;;;;;;16.03;14.63;;;;;;;4.40;100.00;95268.25;5026837;28;20291;-57
2022/03/31 00:40:39;;;;;;;16.37;14.27;;;;;;;4.33;100.00;95257.72;5019675;28;20903;-54
2022/03/31 00:43:08;;;;;;;17.60;14.43;;;;;;;4.38;100.00;95257.94;5021097;28;20672;-54
2022/03/31 00:45:47;;;;;;;17.07;15.27;;;;;;;4.49;100.00;95260.03;5001815;28;20215;-54
2022/03/31 00:48:17;;;;;;;17.10;15.10;;;;;;;4.49;100.00;95248.72;5023433;28;20199;-56
2022/03/31 00:50:46;;;;;;;16.93;15.13;;;;;;;4.53;100.00;95255.22;4970301;28;20238;-56
2022/03/31 00:53:14;;;;;;;17.60;15.07;;;;;;;4.45;100.00;95252.75;5018843;28;20948;-55
2022/03/31 00:55:56;;;;;;;17.00;15.20;;;;;;;4.49;100.00;95253.97;5025934;28;20808;-56
2022/03/31 00:58:24;;;;;;;16.97;15.27;;;;;;;4.53;100.00;95249.97;5022314;28;20764;-56
2022/03/31 01:00:54;;;;;;;16.83;15.13;;;;;;;4.60;100.00;95240.31;5004452;28;20423;-55
2022/03/31 01:03:22;;;;;;;17.00;15.30;;;;;;;4.58;100.00;95244.16;5022422;28;20207;-58
2022/03/31 01:05:51;;;;;;;15.93;14.33;;;;;;;4.58;100.00;95244.16;5024908;28;20327;-55
2022/03/31 01:08:21;;;;;;;16.17;14.00;;;;;;;4.57;100.00;95242.53;4986592;28;20294;-56
2022/03/31 01:10:50;;;;;;;17.50;15.67;;;;;;;4.48;100.00;95240.03;5028911;28;20277;-54
2022/03/31 01:13:18;;;;;;;16.47;14.90;;;;;;;4.49;100.00;95231.16;5026970;28;20285;-57
2022/03/31 01:15:47;;;;;;;15.63;13.93;;;;;;;4.59;100.00;95228.19;5011776;28;21563;-54
2022/03/31 01:18:17;;;;;;;15.63;13.57;;;;;;;4.57;100.00;95232.84;5030275;28;20707;-55
2022/03/31 01:20:45;;;;;;;14.63;13.13;;;;;;;4.47;100.00;95224.53;5023635;28;21043;-51
2022/03/31 01:23:15;;;;;;;16.53;14.83;;;;;;;4.48;100.00;95223.50;4993234;28;20213;-56
2022/03/31 01:25:44;;;;;;;16.37;14.23;;;;;;;4.40;100.00;95216.59;5026000;28;20287;-53
2022/03/31 01:28:12;;;;;;;16.13;13.87;;;;;;;4.34;100.00;95207.69;5026605;28;20637;-56
2022/03/31 01:30:41;;;;;;;17.27;15.20;;;;;;;4.44;100.00;95214.41;5029716;28;20310;-52
2022/03/31 01:33:10;;;;;;;17.27;13.40;;;;;;;4.46;100.00;95212.41;5009059;28;20341;-56
2022/03/31 01:35:39;;;;;;;14.83;13.30;;;;;;;4.44;100.00;95202.09;5025631;28;20317;-54
2022/03/31 01:38:07;;;;;;;14.27;12.77;;;;;;;4.46;100.00;95204.53;4992132;28;20291;-53
2022/03/31 01:40:37;;;;;;;15.47;13.63;;;;;;;4.55;100.00;95192.88;5026615;28;20218;-57
2022/03/31 01:43:07;;;;;;;14.83;13.17;;;;;;;4.41;100.00;95186.75;5024253;28;20536;-55
2022/03/31 01:45:36;;;;;;;13.73;12.33;;;;;;;4.40;100.00;95190.38;5026228;28;20270;-57
2022/03/31 01:48:05;;;;;;;14.40;12.90;;;;;;;4.43;100.00;95192.63;5010590;28;20261;-52
2022/03/31 01:50:34;;;;;;;13.40;12.03;;;;;;;4.49;100.00;95191.03;5027430;28;20314;-56
2022/03/31 01:53:02;;;;;;;14.23;12.73;;;;;;;4.41;100.00;95191.22;4986582;28;20238;-54
2022/03/31 01:55:30;;;;;;;12.93;11.53;;;;;;;4.39;100.00;95173.03;5023646;28;20317;-53
2022/03/31 01:58:00;;;;;;;12.93;11.63;;;;;;;4.33;100.00;95186.91;5025284;28;20681;-57
2022/03/31 02:00:28;;;;;;;13.37;11.77;;;;;;;4.31;100.00;95181.84;5027538;28;20266;-57
2022/03/31 02:02:57;;;;;;;12.90;11.70;;;;;;;4.34;100.00;95183.28;5005821;28;20208;-55
2022/03/31 02:05:25;;;;;;;12.73;11.37;;;;;;;4.28;100.00;95179.63;5024319;28;20219;-56
2022/03/31 02:07:55;;;;;;;12.50;10.50;;;;;;;4.29;100.00;95180.44;5025045;28;20290;-57
2022/03/31 02:10:25;;;;;;;13.40;11.97;;;;;;;4.31;100.00;95174.00;4991202;28;20263;-54
2022/03/31 02:12:54;;;;;;;13.00;11.73;;;;;;;4.41;100.00;95172.84;5024452;28;20208;-54
2022/03/31 02:15:24;;;;;;;14.87;12.43;;;;;;;4.44;100.00;95164.59;5026324;28;20241;-57
2022/03/31 02:17:53;;;;;;;13.90;11.20;;;;;;;4.40;100.00;95152.88;5007294;28;20937;-57
2022/03/31 02:20:22;;;;;;;13.20;11.83;;;;;;;4.35;100.00;95156.88;5022106;28;20243;-55
2022/03/31 02:22:51;;;;;;;14.50;11.80;;;;;;;4.43;100.00;95155.91;5023705;28;20843;-55
2022/03/31 02:25:20;;;;;;;12.47;11.27;;;;;;;4.45;100.00;95151.28;4985747;28;20236;-56
2022/03/31 02:27:51;;;;;;;13.23;11.80;;;;;;;4.42;100.00;95143.78;5023931;28;20232;-56
2022/03/31 02:30:20;;;;;;;13.10;11.43;;;;;;;4.35;100.00;95135.88;5025036;28;20345;-56
2022/03/31 02:32:50;;;;;;;13.90;11.10;;;;;;;4.54;100.00;95149.28;5006358;28;20235;-57
2022/03/31 02:35:19;;;;;;;12.57;11.27;;;;;;;4.47;100.00;95146.63;5025765;28;20208;-56
2022/03/31 02:37:47;;;;;;;11.57;10.37;;;;;;;4.40;100.00;95143.19;5028179;28;20207;-57
2022/03/31 02:40:15;;;;;;;11.50;10.23;;;;;;;4.36;100.00;95144.59;4990307;28;20234;-55
2022/03/31 02:42:43;;;;;;;11.37;10.23;;;;;;;4.35;100.00;95140.34;5028162;28;20232;-54
2022/03/31 02:45:12;;;;;;;12.13;10.97;;;;;;;4.28;100.00;95127.19;5019269;28;20412;-52
2022/03/31 02:47:40;;;;;;;11.13;10.13;;;;;;;4.34;100.00;95126.41;5020115;28;20200;-56
2022/03/31 02:50:11;;;;;;;11.43;10.23;;;;;;;4.39;100.00;95122.41;5014729;28;20234;-59
2022/03/31 02:55:26;;;;;;;11.17;10.07;;;;;;;4.27;100.00;95117.72;4985673;28;20241;-56
2022/03/31 02:57:54;;;;;;;11.23;10.10;;;;;;;4.19;100.00;95117.88;5026629;28;20287;-57
2022/03/31 03:00:22;;;;;;;11.73;10.60;;;;;;;4.14;100.00;95110.59;5029532;28;20883;-57
2022/03/31 03:02:51;;;;;;;10.43;9.43;;;;;;;4.11;100.00;95118.84;5020399;28;20905;-55
2022/03/31 03:05:21;;;;;;;12.07;10.30;;;;;;;4.05;100.00;95115.22;4972228;28;20846;-51
2022/03/31 03:07:49;;;;;;;10.93;9.37;;;;;;;4.02;100.00;95114.78;5029980;28;20219;-58
2022/03/31 03:10:18;;;;;;;10.40;9.40;;;;;;;4.11;100.00;95103.13;4988013;28;20266;-54
2022/03/31 03:12:46;;;;;;;12.17;9.77;;;;;;;4.06;100.00;95108.13;5001559;28;20343;-55
2022/03/31 03:15:14;;;;;;;10.97;9.87;;;;;;;4.00;100.00;95107.13;5021478;28;20256;-58
2022/03/31 03:17:44;;;;;;;10.80;9.70;;;;;;;3.98;100.00;95108.31;5025915;28;20214;-57
2022/03/31 03:20:16;;;;;;;11.87;10.43;;;;;;;4.19;100.00;95102.16;4995837;28;20231;-57
2022/03/31 03:22:47;;;;;;;11.47;10.30;;;;;;;4.13;100.00;95108.19;5019547;28;20203;-57
2022/03/31 03:25:16;;;;;;;11.27;10.07;;;;;;;4.18;100.00;95100.53;5020510;28;20783;-58
2022/03/31 03:27:44;;;;;;;11.13;9.70;;;;;;;4.13;100.00;95102.94;4981773;28;20303;-58
2022/03/31 03:30:13;;;;;;;9.57;8.67;;;;;;;4.03;100.00;95091.00;5020087;28;20261;-58
2022/03/31 03:32:41;;;;;;;11.20;10.13;;;;;;;4.12;100.00;95098.69;5027528;28;20679;-58
2022/03/31 03:35:11;;;;;;;11.23;9.97;;;;;;;4.10;100.00;95096.25;5000589;28;20233;-56
2022/03/31 03:37:41;;;;;;;16.03;9.47;;;;;;;4.08;100.00;95092.22;5020745;28;20219;-58
2022/03/31 03:40:13;;;;;;;10.57;9.50;;;;;;;3.99;100.00;95081.09;5006658;28;20297;-55
2022/03/31 03:42:41;;;;;;;9.83;8.73;;;;;;;4.06;100.00;95089.78;4982277;28;21017;-56
2022/03/31 03:45:11;;;;;;;9.70;8.70;;;;;;;4.03;100.00;95093.63;5010480;28;21012;-57
2022/03/31 03:47:39;;;;;;;11.30;9.90;;;;;;;4.04;100.00;95089.19;5027472;28;20247;-54
2022/03/31 03:50:08;;;;;;;9.73;8.83;;;;;;;4.03;100.00;95092.81;5020055;28;20223;-51
2022/03/31 03:52:37;;;;;;;10.80;9.63;;;;;;;4.02;100.00;95089.38;5024854;28;21535;-55
2022/03/31 03:55:06;;;;;;;11.00;9.90;;;;;;;4.01;100.00;95084.34;5019751;28;20227;-52
2022/03/31 03:57:35;;;;;;;10.23;9.17;;;;;;;4.03;100.00;95087.56;5030090;28;20199;-53
2022/03/31 04:00:05;;;;;;;10.20;8.13;;;;;;;4.00;100.00;95091.41;4964136;28;20311;-60
2022/03/31 04:02:33;;;;;;;9.63;8.73;;;;;;;4.00;100.00;95085.34;5028225;28;20773;-57
2022/03/31 04:05:01;;;;;;;10.97;9.97;;;;;;;4.07;100.00;95083.56;5022312;28;20203;-55
2022/03/31 04:07:30;;;;;;;9.87;8.83;;;;;;;4.08;100.00;95087.78;5029925;28;20789;-57
2022/03/31 04:09:58;;;;;;;10.80;9.70;;;;;;;4.05;100.00;95089.00;5023974;28;20314;-57
2022/03/31 04:12:26;;;;;;;10.03;9.07;;;;;;;4.14;100.00;95088.84;5027677;28;20310;-57
2022/03/31 04:14:56;;;;;;;10.83;9.70;;;;;;;4.12;100.00;95086.38;4983622;28;20219;-58
2022/03/31 04:17:24;;;;;;;11.57;10.47;;;;;;;4.10;100.00;95085.78;5007995;28;20813;-58
2022/03/31 04:19:53;;;;;;;10.17;9.17;;;;;;;4.10;100.00;95087.59;5023760;28;20263;-57
2022/03/31 04:22:21;;;;;;;8.67;7.93;;;;;;;4.13;100.00;95092.47;5026337;28;20299;-57
2022/03/31 04:24:50;;;;;;;11.47;9.57;;;;;;;4.16;100.00;95082.38;5024410;28;20200;-57
2022/03/31 04:27:18;;;;;;;10.27;9.27;;;;;;;4.16;100.00;95087.63;5025509;28;20246;-56
2022/03/31 04:29:46;;;;;;;11.00;10.00;;;;;;;4.11;100.00;95086.59;4987234;28;20315;-55
2022/03/31 04:32:16;;;;;;;10.13;9.13;;;;;;;3.98;100.00;95080.31;4977524;28;20218;-52
2022/03/31 04:34:44;;;;;;;9.77;8.87;;;;;;;4.09;100.00;95089.41;5021279;28;20315;-54
2022/03/31 04:37:12;;;;;;;10.07;9.13;;;;;;;4.15;100.00;95093.88;5007347;28;20852;-57
2022/03/31 04:39:41;;;;;;;10.03;8.97;;;;;;;4.11;100.00;95079.53;5027347;28;20287;-58
2022/03/31 04:42:09;;;;;;;10.60;9.50;;;;;;;4.14;100.00;95088.84;5024266;28;20832;-55
2022/03/31 04:44:38;;;;;;;10.40;9.33;;;;;;;4.08;100.00;95089.63;5002406;28;20231;-57
2022/03/31 04:47:08;;;;;;;10.47;9.47;;;;;;;4.15;100.00;95093.06;5014088;28;20207;-55
2022/03/31 04:49:37;;;;;;;10.77;9.67;;;;;;;4.05;100.00;95072.44;5005644;28;21245;-56
2022/03/31 04:52:07;;;;;;;10.47;9.37;;;;;;;3.91;100.00;95064.53;5004959;28;20334;-56
2022/03/31 04:54:35;;;;;;;10.73;9.63;;;;;;;3.89;100.00;95058.69;5021509;28;20270;-56
2022/03/31 04:57:03;;;;;;;10.70;9.57;;;;;;;3.86;100.00;95081.84;5023027;28;20291;-54
2022/03/31 04:59:32;;;;;;;10.23;9.23;;;;;;;4.02;100.00;95072.84;5012054;28;20288;-57
2022/03/31 05:02:00;;;;;;;10.17;9.20;;;;;;;3.91;100.00;95088.13;4998796;28;20209;-58
2022/03/31 05:04:29;;;;;;;10.40;9.10;;;;;;;3.81;100.00;95071.94;5008899;28;20215;-56
2022/03/31 05:06:58;;;;;;;11.13;10.13;;;;;;;3.80;100.00;95075.56;5022091;28;20207;-53
2022/03/31 05:09:27;;;;;;;10.57;9.57;;;;;;;3.93;100.00;95074.03;4998974;28;20299;-55
2022/03/31 05:11:55;;;;;;;10.37;9.40;;;;;;;3.91;100.00;95075.03;5019151;28;20231;-54
2022/03/31 05:14:23;;;;;;;10.27;9.30;;;;;;;3.79;100.00;95081.00;4999654;28;20204;-56
2022/03/31 05:16:52;;;;;;;11.87;10.43;;;;;;;3.93;100.00;95076.63;4980371;28;20376;-54
2022/03/31 05:19:20;;;;;;;9.77;8.87;;;;;;;3.90;100.00;95083.88;4990628;28;20232;-57
2022/03/31 05:21:48;;;;;;;10.57;9.40;;;;;;;3.94;100.00;95073.00;5022018;28;20220;-56
2022/03/31 05:24:18;;;;;;;10.03;9.03;;;;;;;3.90;100.00;95070.78;5015162;28;20204;-54
2022/03/31 05:26:47;;;;;;;10.30;9.27;;;;;;;3.97;100.00;95067.38;5023638;28;20588;-55
2022/03/31 05:29:15;;;;;;;11.23;10.13;;;;;;;3.88;100.00;95075.41;5014681;28;20720;-54
2022/03/31 05:31:43;;;;;;;13.63;9.67;;;;;;;3.90;100.00;95078.66;4982846;28;20235;-56
2022/03/31 05:34:11;;;;;;;10.63;9.53;;;;;;;3.96;100.00;95077.03;5003921;28;20328;-58
2022/03/31 05:36:39;;;;;;;13.63;12.10;;;;;;;3.99;100.00;95078.47;5003401;28;20330;-59
2022/03/31 05:39:11;;;;;;;11.43;10.23;;;;;;;3.97;100.00;95083.91;5016400;28;21059;-53
2022/03/31 05:41:41;;;;;;;14.00;12.60;;;;;;;4.04;100.00;95079.53;5024089;28;21041;-56
2022/03/31 05:44:09;;;;;;;10.53;9.37;;;;;;;3.97;100.00;95072.63;5017612;28;20204;-54
2022/03/31 05:46:37;;;;;;;10.63;8.83;;;;;;;3.98;100.00;95077.69;5023040;28;20772;-58
2022/03/31 05:49:06;;;;;;;11.47;10.10;;;;;;;3.99;100.00;95084.53;4978057;28;20214;-59
2022/03/31 05:51:34;;;;;;;11.20;10.07;;;;;;;3.93;100.00;95081.88;5012822;28;20289;-53
2022/03/31 05:54:03;;;;;;;12.37;10.97;;;;;;;3.98;100.00;95085.53;5020599;28;20214;-58
2022/03/31 05:56:32;;;;;;;10.60;9.57;;;;;;;4.04;100.00;95097.03;5020803;28;20236;-57
2022/03/31 05:59:02;;;;;;;10.67;9.57;;;;;;;4.04;100.00;95090.00;5023315;28;20230;-59
2022/03/31 06:01:30;;;;;;;10.97;9.93;;;;;;;4.04;100.00;95089.19;5029080;28;20603;-54
2022/03/31 06:03:58;;;;;;;12.80;11.47;;;;;;;3.98;100.00;95092.59;4989425;28;20238;-57
2022/03/31 06:06:27;;;;;;;13.07;11.77;;;;;;;3.98;100.00;95084.72;5012332;28;20359;-58
2022/03/31 06:08:55;;;;;;;11.73;10.67;;;;;;;3.89;100.00;95081.44;5023789;28;20286;-57
2022/03/31 06:11:23;;;;;;;11.97;10.43;;;;;;;4.00;100.00;95083.53;5023774;28;20316;-55
2022/03/31 06:13:51;;;;;;;11.57;10.13;;;;;;;3.94;100.00;95086.13;5024711;28;20235;-58
2022/03/31 06:16:21;;;;;;;11.77;10.63;;;;;;;3.97;100.00;95086.53;5027048;28;20941;-57
2022/03/31 06:18:49;;;;;;;11.77;10.57;;;;;;;3.98;100.00;95082.94;4989450;28;20605;-57
2022/03/31 06:21:18;;;;;;;13.33;11.30;;;;;;;4.11;100.00;95084.78;5007535;28;20458;-56
2022/03/31 06:23:46;;;;;;;12.10;10.80;;;;;;;4.10;100.00;95085.78;5024917;28;20251;-58
2022/03/31 06:26:14;;;;;;;12.53;11.10;;;;;;;4.13;100.00;95088.00;5023214;28;20192;-59
2022/03/31 06:28:42;;;;;;;14.20;11.30;;;;;;;4.08;100.00;95076.50;5025760;28;20211;-53
2022/03/31 06:31:10;;;;;;;12.53;10.80;;;;;;;4.04;100.00;95078.69;5022925;28;20216;-56
2022/03/31 06:33:40;;;;;;;13.13;11.53;;;;;;;4.09;100.00;95086.00;5027737;28;20234;-57
2022/03/31 06:36:08;;;;;;;13.57;12.10;;;;;;;4.12;100.00;95085.59;4973360;28;20243;-58
2022/03/31 06:38:37;;;;;;;13.17;11.83;;;;;;;4.04;100.00;95078.69;5023439;28;20196;-57
2022/03/31 06:41:10;;;;;;;13.27;11.90;;;;;;;4.03;100.00;95082.31;5018458;28;20266;-57
2022/03/31 06:43:39;;;;;;;12.67;11.50;;;;;;;4.02;100.00;95081.53;5029168;28;20235;-55
2022/03/31 06:46:08;;;;;;;15.33;13.40;;;;;;;4.04;100.00;95082.16;5024371;28;20223;-56
2022/03/31 06:48:37;;;;;;;14.83;12.40;;;;;;;3.94;100.00;95079.06;5027929;28;20204;-58
2022/03/31 06:51:08;;;;;;;13.27;11.80;;;;;;;4.04;100.00;95081.31;4978674;28;20312;-57
2022/03/31 06:53:38;;;;;;;15.33;12.40;;;;;;;4.03;100.00;95084.94;5026179;28;20297;-56
2022/03/31 06:56:06;;;;;;;15.03;12.27;;;;;;;4.02;100.00;95083.31;5020977;28;20382;-58
2022/03/31 06:58:34;;;;;;;14.57;12.23;;;;;;;3.88;100.00;95088.50;5025134;28;20768;-55
2022/03/31 07:01:03;;;;;;;16.83;13.10;;;;;;;3.98;100.00;95088.16;5024920;28;20282;-57
2022/03/31 07:03:32;;;;;;;13.97;12.57;;;;;;;4.05;100.00;95089.00;5020506;28;20236;-55
2022/03/31 07:06:00;;;;;;;15.83;12.57;;;;;;;4.03;100.00;95095.44;5005018;28;20789;-58
2022/03/31 07:08:31;;;;;;;13.90;12.50;;;;;;;3.96;100.00;95089.34;5010994;28;20207;-57
2022/03/31 07:11:00;;;;;;;15.77;13.37;;;;;;;3.83;100.00;95092.69;5026946;28;20254;-56
2022/03/31 07:13:28;;;;;;;15.53;13.33;;;;;;;3.90;100.00;95088.31;5023457;28;20943;-57
2022/03/31 07:15:56;;;;;;;15.37;13.77;;;;;;;3.97;100.00;95076.03;5024122;28;20339;-55
2022/03/31 07:18:24;;;;;;;13.97;12.57;;;;;;;4.11;100.00;95089.22;5026143;28;20235;-58
2022/03/31 07:20:53;;;;;;;15.47;13.43;;;;;;;4.07;100.00;95077.50;5025576;28;20277;-58
2022/03/31 07:23:23;;;;;;;13.67;12.20;;;;;;;4.17;100.00;95085.81;4983947;28;20358;-59
2022/03/31 07:25:53;;;;;;;14.17;12.37;;;;;;;4.25;100.00;95083.03;5026656;28;20206;-57
2022/03/31 07:28:22;;;;;;;14.17;12.70;;;;;;;4.18;100.00;95082.19;5024910;28;20856;-57
2022/03/31 07:30:51;;;;;;;15.67;12.37;;;;;;;4.26;100.00;95084.63;5021613;28;20281;-57
2022/03/31 07:33:20;;;;;;;15.50;13.13;;;;;;;4.25;100.00;95084.84;5020729;28;20335;-56
2022/03/31 07:35:48;;;;;;;16.80;13.17;;;;;;;4.25;100.00;95080.41;5024333;28;20211;-54
2022/03/31 07:38:17;;;;;;;17.83;13.23;;;;;;;4.24;100.00;95081.41;4984203;28;21181;-56
2022/03/31 07:40:46;;;;;;;15.03;13.13;;;;;;;4.24;100.00;95075.38;5025181;28;20796;-58
2022/03/31 07:43:15;;;;;;;13.77;12.20;;;;;;;4.29;100.00;95070.34;5022166;28;20973;-56
2022/03/31 07:45:44;;;;;;;13.73;12.33;;;;;;;4.39;100.00;95086.50;5026834;28;20757;-56
2022/03/31 07:48:15;;;;;;;14.13;12.03;;;;;;;4.29;100.00;95080.81;5017632;28;20290;-53
2022/03/31 07:50:43;;;;;;;12.60;11.30;;;;;;;4.24;100.00;95083.22;5023980;28;20307;-59
2022/03/31 07:53:12;;;;;;;13.70;12.30;;;;;;;4.33;100.00;95079.44;4983400;28;22184;-54
2022/03/31 07:55:41;;;;;;;14.53;11.77;;;;;;;4.46;100.00;95076.84;5022518;28;20254;-55
2022/03/31 07:58:09;;;;;;;13.47;11.67;;;;;;;4.53;100.00;95076.88;5021175;28;20318;-56
2022/03/31 08:00:39;;;;;;;13.43;11.93;;;;;;;4.52;100.00;95069.19;5023833;28;21041;-56
2022/03/31 08:03:07;;;;;;;12.70;11.40;;;;;;;4.68;100.00;95070.63;5020151;28;20205;-57
2022/03/31 08:05:38;;;;;;;13.17;10.87;;;;;;;4.70;100.00;95068.63;5024330;28;20203;-53
2022/03/31 08:08:06;;;;;;;12.90;10.33;;;;;;;4.75;100.00;95074.91;4991975;28;20208;-58
2022/03/31 08:10:35;;;;;;;12.63;10.43;;;;;;;4.81;100.00;95075.91;5017468;28;20236;-58
2022/03/31 08:13:04;;;;;;;14.53;13.23;;;;;;;4.87;100.00;95059.38;5018806;28;20307;-56
2022/03/31 08:15:32;;;;;;;11.83;10.63;;;;;;;4.93;100.00;95070.91;5020794;28;20207;-60
2022/03/31 08:18:02;;;;;;;12.10;10.83;;;;;;;4.85;100.00;95069.25;5019825;28;20220;-58
2022/03/31 08:20:31;;;;;;;11.43;10.30;;;;;;;4.84;100.00;95075.53;5016382;28;20318;-57
2022/03/31 08:22:59;;;;;;;12.03;10.53;;;;;;;5.01;100.00;95062.00;5025211;28;20236;-56
2022/03/31 08:25:28;;;;;;;12.67;10.97;;;;;;;5.01;100.00;95068.06;4980794;28;20339;-57
2022/03/31 08:27:56;;;;;;;10.63;9.53;;;;;;;5.25;100.00;95071.09;5022650;28;20285;-55
2022/03/31 08:30:25;;;;;;;12.23;11.03;;;;;;;5.44;100.00;95060.78;5018018;28;20259;-56
2022/03/31 08:32:53;;;;;;;11.67;10.47;;;;;;;5.60;100.00;95055.09;5021195;28;20914;-55
2022/03/31 08:35:27;;;;;;;11.17;9.97;;;;;;;5.75;100.00;95054.88;5024371;28;20204;-58
2022/03/31 08:37:55;;;;;;;12.63;11.33;;;;;;;5.90;100.00;95049.38;5019109;28;20285;-58
2022/03/31 08:40:24;;;;;;;15.40;13.80;;;;;;;5.97;100.00;95057.25;4990089;28;20232;-53
2022/03/31 08:42:52;;;;;;;16.17;14.57;;;;;;;5.77;100.00;95055.47;5025797;28;20259;-57
2022/03/31 08:45:20;;;;;;;12.43;11.10;;;;;;;5.66;100.00;95053.47;5016286;28;20322;-56
2022/03/31 08:47:51;;;;;;;29.27;26.13;;;;;;;5.74;100.00;95055.09;5025621;28;20203;-55
2022/03/31 08:50:20;;;;;;;12.77;11.47;;;;;;;5.81;100.00;95058.50;5027792;28;20283;-58
2022/03/31 08:52:50;;;;;;;21.90;19.00;;;;;;;5.76;100.00;95053.84;5022825;28;20203;-55
2022/03/31 08:55:19;;;;;;;21.33;17.30;;;;;;;5.68;100.00;95056.69;4983541;28;20251;-60
2022/03/31 08:57:49;;;;;;;25.53;20.53;;;;;;;5.87;100.00;95062.09;5021085;28;20232;-52
2022/03/31 09:00:21;;;;;;;11.73;9.27;;;;;;;6.01;100.00;95050.59;5020793;28;21135;-58
2022/03/31 09:02:57;;;;;;;24.87;20.57;;;;;;;6.09;100.00;95046.94;5025048;28;20231;-56
2022/03/31 09:05:25;;;;;;;45.77;36.73;;;;;;;6.34;100.00;95049.66;5024180;28;20199;-55
2022/03/31 09:08:00;;;;;;;17.27;15.57;;;;;;;6.41;100.00;95041.69;5023163;28;20203;-56
2022/03/31 09:10:30;;;;;;;12.17;10.97;;;;;;;6.55;100.00;95050.34;5026489;28;20220;-59
2022/03/31 09:13:01;;;;;;;9.10;8.40;;;;;;;6.46;100.00;95051.59;4982100;28;20215;-57
2022/03/31 09:15:32;;;;;;;9.57;8.67;;;;;;;6.41;100.00;95046.16;5022874;28;20600;-58
2022/03/31 09:18:01;;;;;;;10.00;8.83;;;;;;;6.31;100.00;95047.44;5021142;28;20223;-57
2022/03/31 09:20:39;;;;;;;10.40;9.37;;;;;;;6.42;100.00;95045.94;5024029;28;20304;-55
2022/03/31 09:23:15;;;;;;;12.87;8.97;;;;;;;6.40;100.00;95047.19;5021931;28;20540;-57
2022/03/31 09:25:44;;;;;;;9.40;7.80;;;;;;;6.36;100.00;95046.78;5023752;28;20199;-56
2022/03/31 09:28:14;;;;;;;11.70;10.33;;;;;;;6.38;100.00;95050.00;4978461;28;20803;-57
2022/03/31 09:30:47;;;;;;;11.70;10.50;;;;;;;6.19;100.00;95046.47;5025932;28;21063;-57
2022/03/31 09:33:30;;;;;;;10.60;9.47;;;;;;;6.17;100.00;95048.50;5020816;28;20283;-57
2022/03/31 09:36:05;;;;;;;19.27;17.30;;;;;;;6.25;100.00;95044.81;5024302;28;20298;-57
2022/03/31 09:38:37;;;;;;;53.00;40.57;;;;;;;6.19;100.00;95047.28;5026130;28;20229;-56
2022/03/31 09:41:17;;;;;;;41.33;32.43;;;;;;;6.26;100.00;95051.69;5025198;28;20258;-55
2022/03/31 09:43:46;;;;;;;42.17;33.47;;;;;;;6.33;100.00;95037.50;4989415;28;20243;-54
2022/03/31 09:46:22;;;;;;;24.83;21.10;;;;;;;6.53;100.00;95047.09;5026480;28;20206;-58
2022/03/31 09:48:51;;;;;;;18.00;14.33;;;;;;;6.55;100.00;95036.38;5027530;28;20207;-57
2022/03/31 09:51:20;;;;;;;8.80;8.07;;;;;;;6.70;100.00;95038.72;5027093;28;20964;-57
2022/03/31 09:53:51;;;;;;;20.57;18.53;;;;;;;6.73;100.00;95033.03;5028752;28;20258;-53
2022/03/31 09:56:20;;;;;;;8.60;7.80;;;;;;;6.69;100.00;95030.00;5028466;28;20288;-57
2022/03/31 09:58:49;;;;;;;14.17;12.87;;;;;;;6.93;100.00;95036.31;4987174;28;20792;-55
2022/03/31 10:01:18;;;;;;;9.10;8.20;;;;;;;6.86;100.00;95035.56;5027132;28;20383;-54
2022/03/31 10:03:48;;;;;;;10.17;8.20;;;;;;;6.85;100.00;95033.16;5023539;28;20293;-55
2022/03/31 10:06:17;;;;;;;9.23;8.23;;;;;;;6.91;100.00;95030.47;5025107;28;20203;-57
2022/03/31 10:08:47;;;;;;;10.33;9.33;;;;;;;6.75;100.00;95031.78;5024078;28;20911;-55
2022/03/31 10:11:19;;;;;;;9.20;8.37;;;;;;;6.67;100.00;95032.03;5020154;28;20231;-56
2022/03/31 10:13:58;;;;;;;10.30;8.93;;;;;;;6.82;100.00;95031.75;4987009;28;20207;-55
2022/03/31 10:16:35;;;;;;;8.57;7.67;;;;;;;6.82;100.00;95015.97;5025291;28;20199;-56
2022/03/31 10:19:04;;;;;;;9.40;8.50;;;;;;;7.04;100.00;95024.28;5017739;28;20971;-58
2022/03/31 10:21:32;;;;;;;8.07;7.37;;;;;;;7.19;100.00;95013.44;5019885;28;20930;-57
2022/03/31 10:26:57;;;;;;;8.83;8.00;;;;;;;7.00;100.00;95017.03;5017936;28;20219;-56
2022/03/31 10:29:38;;;;;;;9.47;8.57;;;;;;;7.14;100.00;95013.28;4987472;28;21133;-54
2022/03/31 10:32:16;;;;;;;9.20;8.30;;;;;;;7.07;100.00;95015.97;5022107;28;20219;-58
2022/03/31 10:34:48;;;;;;;9.23;8.27;;;;;;;7.00;100.00;95012.59;5023199;28;20292;-56
2022/03/31 10:37:19;;;;;;;10.03;8.97;;;;;;;6.94;100.00;95011.59;5021452;28;20222;-58
2022/03/31 10:39:56;;;;;;;9.73;8.83;;;;;;;6.95;100.00;95007.94;5019703;28;21096;-54
2022/03/31 10:42:25;;;;;;;8.50;7.70;;;;;;;7.00;100.00;95019.66;5025530;28;20235;-56
2022/03/31 10:45:18;;;;;;;9.63;8.63;;;;;;;6.86;100.00;95011.88;5020748;28;20225;-58
2022/03/31 10:47:46;;;;;;;9.97;9.07;;;;;;;6.75;100.00;95007.31;5003684;28;20286;-54
2022/03/31 10:50:23;;;;;;;9.50;8.53;;;;;;;6.76;100.00;95008.91;5025466;28;20304;-53
2022/03/31 10:52:59;;;;;;;9.30;8.50;;;;;;;6.63;100.00;95004.56;5022079;28;20767;-58
2022/03/31 10:55:35;;;;;;;9.63;8.73;;;;;;;6.48;100.00;95008.28;5019370;28;20227;-57
2022/03/31 10:58:06;;;;;;;8.53;7.67;;;;;;;6.55;100.00;95010.88;5020659;28;20258;-58
2022/03/31 11:00:34;;;;;;;12.07;9.60;;;;;;;6.51;100.00;95018.41;5025275;28;20223;-55
2022/03/31 11:03:03;;;;;;;10.03;8.70;;;;;;;6.65;100.00;95010.41;4985281;28;20215;-57
2022/03/31 11:05:45;;;;;;;10.00;9.00;;;;;;;6.60;100.00;95000.50;5025966;28;20207;-54
2022/03/31 11:08:17;;;;;;;9.77;8.80;;;;;;;6.62;100.00;95000.31;5020782;28;20196;-54
2022/03/31 11:10:47;;;;;;;11.13;9.03;;;;;;;6.53;100.00;95002.38;5026940;28;20314;-57
2022/03/31 11:13:18;;;;;;;10.23;8.93;;;;;;;6.45;100.00;95007.91;5023578;28;20355;-58
2022/03/31 11:15:55;;;;;;;9.33;8.43;;;;;;;6.50;100.00;94998.38;5024765;28;20212;-58
2022/03/31 11:18:25;;;;;;;11.50;10.40;;;;;;;6.63;100.00;95009.81;4986099;28;20228;-55
2022/03/31 11:20:56;;;;;;;12.47;9.20;;;;;;;6.52;100.00;95003.41;5022766;28;20307;-54
2022/03/31 11:23:24;;;;;;;9.97;9.07;;;;;;;6.51;100.00;95005.25;5019969;28;20207;-57
2022/03/31 11:25:53;;;;;;;9.93;8.63;;;;;;;6.58;100.00;95002.53;5022520;28;20294;-56
2022/03/31 11:28:23;;;;;;;9.87;8.90;;;;;;;6.57;100.00;94993.03;5020642;28;20204;-56
2022/03/31 11:30:54;;;;;;;9.60;8.83;;;;;;;6.66;100.00;94993.59;5023982;28;20314;-57
2022/03/31 11:33:22;;;;;;;11.13;9.87;;;;;;;6.63;100.00;94991.41;4983814;28;21720;-58
2022/03/31 11:35:52;;;;;;;11.80;10.33;;;;;;;6.66;100.00;94983.06;5022498;28;20298;-56
2022/03/31 11:38:21;;;;;;;9.50;8.70;;;;;;;6.63;100.00;94983.50;5026276;28;20219;-54